sensor_id;sensor_type;location;lat;lon;timestamp;P1;durP1;ratioP1;P2;durP2;ratioP2
5979;SDS011;3016;50.308;8.258;2023-07-13T00:02:39;20.80;;;2.40;;
5979;SDS011;3016;50.308;8.258;2023-07-13T00:05:40;18.17;;;1.93;;
5979;SDS011;3016;50.308;8.258;2023-07-13T00:08:41;18.20;;;2.13;;
5979;SDS011;3016;50.308;8.258;2023-07-13T00:11:42;19.07;;;2.30;;
5979;SDS011;3016;50.308;8.258;2023-07-13T00:14:44;18.50;;;2.50;;
5979;SDS011;3016;50.308;8.258;2023-07-13T00:17:44;20.57;;;2.40;;
5979;SDS011;3016;50.308;8.258;2023-07-13T00:20:45;19.70;;;2.40;;
5979;SDS011;3016;50.308;8.258;2023-07-13T00:23:46;17.80;;;1.90;;
5979;SDS011;3016;50.308;8.258;2023-07-13T00:26:48;18.50;;;2.13;;
5979;SDS011;3016;50.308;8.258;2023-07-13T00:29:49;17.93;;;1.83;;
5979;SDS011;3016;50.308;8.258;2023-07-13T00:32:50;17.97;;;1.90;;
5979;SDS011;3016;50.308;8.258;2023-07-13T00:35:51;17.17;;;2.20;;
5979;SDS011;3016;50.308;8.258;2023-07-13T00:38:51;17.90;;;2.20;;
5979;SDS011;3016;50.308;8.258;2023-07-13T00:41:52;18.00;;;2.80;;
5979;SDS011;3016;50.308;8.258;2023-07-13T00:45:00;19.20;;;2.40;;
5979;SDS011;3016;50.308;8.258;2023-07-13T00:48:04;19.40;;;2.60;;
5979;SDS011;3016;50.308;8.258;2023-07-13T00:51:05;19.50;;;2.20;;
5979;SDS011;3016;50.308;8.258;2023-07-13T00:54:13;19.10;;;2.67;;
5979;SDS011;3016;50.308;8.258;2023-07-13T00:57:18;17.73;;;2.20;;
5979;SDS011;3016;50.308;8.258;2023-07-13T01:00:21;21.03;;;2.23;;
5979;SDS011;3016;50.308;8.258;2023-07-13T01:03:23;17.73;;;2.30;;
5979;SDS011;3016;50.308;8.258;2023-07-13T01:06:24;17.90;;;2.17;;
5979;SDS011;3016;50.308;8.258;2023-07-13T01:09:25;19.17;;;2.03;;
5979;SDS011;3016;50.308;8.258;2023-07-13T01:12:26;17.47;;;2.07;;
5979;SDS011;3016;50.308;8.258;2023-07-13T01:15:41;18.67;;;2.20;;
5979;SDS011;3016;50.308;8.258;2023-07-13T01:18:45;18.30;;;2.13;;
5979;SDS011;3016;50.308;8.258;2023-07-13T01:21:49;17.30;;;2.20;;
5979;SDS011;3016;50.308;8.258;2023-07-13T01:24:52;19.27;;;2.70;;
5979;SDS011;3016;50.308;8.258;2023-07-13T01:27:54;21.80;;;3.03;;
5979;SDS011;3016;50.308;8.258;2023-07-13T01:30:55;18.20;;;2.30;;
5979;SDS011;3016;50.308;8.258;2023-07-13T01:33:58;20.70;;;2.23;;
5979;SDS011;3016;50.308;8.258;2023-07-13T01:36:58;17.77;;;2.00;;
5979;SDS011;3016;50.308;8.258;2023-07-13T01:39:59;19.27;;;2.40;;
5979;SDS011;3016;50.308;8.258;2023-07-13T01:43:00;17.97;;;2.40;;
5979;SDS011;3016;50.308;8.258;2023-07-13T01:46:01;17.80;;;2.30;;
5979;SDS011;3016;50.308;8.258;2023-07-13T01:49:01;18.10;;;2.13;;
5979;SDS011;3016;50.308;8.258;2023-07-13T01:52:02;18.30;;;2.43;;
5979;SDS011;3016;50.308;8.258;2023-07-13T01:55:03;18.90;;;2.10;;
5979;SDS011;3016;50.308;8.258;2023-07-13T01:58:05;20.53;;;2.60;;
5979;SDS011;3016;50.308;8.258;2023-07-13T02:01:06;20.10;;;2.77;;
5979;SDS011;3016;50.308;8.258;2023-07-13T02:04:07;19.35;;;2.53;;
5979;SDS011;3016;50.308;8.258;2023-07-13T02:07:08;21.77;;;2.23;;
5979;SDS011;3016;50.308;8.258;2023-07-13T02:10:10;18.67;;;2.70;;
5979;SDS011;3016;50.308;8.258;2023-07-13T02:13:11;18.40;;;2.10;;
5979;SDS011;3016;50.308;8.258;2023-07-13T02:16:12;18.50;;;2.83;;
5979;SDS011;3016;50.308;8.258;2023-07-13T02:19:13;19.00;;;2.27;;
5979;SDS011;3016;50.308;8.258;2023-07-13T02:22:13;19.60;;;2.17;;
5979;SDS011;3016;50.308;8.258;2023-07-13T02:25:14;17.50;;;2.20;;
5979;SDS011;3016;50.308;8.258;2023-07-13T02:28:15;17.90;;;2.07;;
5979;SDS011;3016;50.308;8.258;2023-07-13T02:31:16;18.00;;;2.50;;
5979;SDS011;3016;50.308;8.258;2023-07-13T02:34:17;18.27;;;2.40;;
5979;SDS011;3016;50.308;8.258;2023-07-13T02:37:17;19.20;;;2.87;;
5979;SDS011;3016;50.308;8.258;2023-07-13T02:40:18;18.63;;;2.00;;
5979;SDS011;3016;50.308;8.258;2023-07-13T02:43:19;18.00;;;2.37;;
5979;SDS011;3016;50.308;8.258;2023-07-13T02:46:19;17.53;;;2.30;;
5979;SDS011;3016;50.308;8.258;2023-07-13T02:49:20;18.70;;;2.60;;
5979;SDS011;3016;50.308;8.258;2023-07-13T02:52:21;17.60;;;2.50;;
5979;SDS011;3016;50.308;8.258;2023-07-13T02:55:21;17.40;;;2.00;;
5979;SDS011;3016;50.308;8.258;2023-07-13T02:58:23;18.63;;;2.13;;
5979;SDS011;3016;50.308;8.258;2023-07-13T03:01:24;17.70;;;2.03;;
5979;SDS011;3016;50.308;8.258;2023-07-13T03:04:25;19.77;;;2.57;;
5979;SDS011;3016;50.308;8.258;2023-07-13T03:07:25;18.20;;;2.00;;
5979;SDS011;3016;50.308;8.258;2023-07-13T03:10:26;19.17;;;2.57;;
5979;SDS011;3016;50.308;8.258;2023-07-13T03:13:27;19.17;;;2.63;;
5979;SDS011;3016;50.308;8.258;2023-07-13T03:16:28;18.40;;;2.13;;
5979;SDS011;3016;50.308;8.258;2023-07-13T03:19:28;18.57;;;2.03;;
5979;SDS011;3016;50.308;8.258;2023-07-13T03:22:29;17.23;;;1.80;;
5979;SDS011;3016;50.308;8.258;2023-07-13T03:25:31;17.57;;;2.03;;
5979;SDS011;3016;50.308;8.258;2023-07-13T03:28:32;17.57;;;2.20;;
5979;SDS011;3016;50.308;8.258;2023-07-13T03:31:34;18.50;;;2.47;;
5979;SDS011;3016;50.308;8.258;2023-07-13T03:34:36;19.43;;;2.17;;
5979;SDS011;3016;50.308;8.258;2023-07-13T03:37:37;20.53;;;2.50;;
5979;SDS011;3016;50.308;8.258;2023-07-13T03:40:42;18.83;;;2.13;;
5979;SDS011;3016;50.308;8.258;2023-07-13T03:43:43;18.00;;;2.43;;
5979;SDS011;3016;50.308;8.258;2023-07-13T03:46:44;17.83;;;2.50;;
5979;SDS011;3016;50.308;8.258;2023-07-13T03:49:45;19.80;;;2.37;;
5979;SDS011;3016;50.308;8.258;2023-07-13T03:52:46;22.47;;;2.63;;
5979;SDS011;3016;50.308;8.258;2023-07-13T03:55:46;17.80;;;2.30;;
5979;SDS011;3016;50.308;8.258;2023-07-13T03:58:48;18.43;;;2.07;;
5979;SDS011;3016;50.308;8.258;2023-07-13T04:01:50;18.03;;;2.17;;
5979;SDS011;3016;50.308;8.258;2023-07-13T04:04:51;19.40;;;2.10;;
5979;SDS011;3016;50.308;8.258;2023-07-13T04:07:52;17.57;;;1.90;;
5979;SDS011;3016;50.308;8.258;2023-07-13T04:10:53;17.77;;;2.17;;
5979;SDS011;3016;50.308;8.258;2023-07-13T04:13:54;18.63;;;2.17;;
5979;SDS011;3016;50.308;8.258;2023-07-13T04:16:55;18.60;;;2.00;;
5979;SDS011;3016;50.308;8.258;2023-07-13T04:19:56;17.80;;;2.20;;
5979;SDS011;3016;50.308;8.258;2023-07-13T04:22:57;17.60;;;2.00;;
5979;SDS011;3016;50.308;8.258;2023-07-13T04:25:58;19.73;;;2.30;;
5979;SDS011;3016;50.308;8.258;2023-07-13T04:28:58;18.10;;;1.93;;
5979;SDS011;3016;50.308;8.258;2023-07-13T04:31:59;18.50;;;2.27;;
5979;SDS011;3016;50.308;8.258;2023-07-13T04:35:00;19.50;;;2.60;;
5979;SDS011;3016;50.308;8.258;2023-07-13T04:38:00;19.87;;;2.47;;
5979;SDS011;3016;50.308;8.258;2023-07-13T04:41:03;18.07;;;2.50;;
5979;SDS011;3016;50.308;8.258;2023-07-13T04:44:06;18.50;;;2.43;;
5979;SDS011;3016;50.308;8.258;2023-07-13T04:47:07;17.20;;;1.83;;
5979;SDS011;3016;50.308;8.258;2023-07-13T04:50:08;17.83;;;2.37;;
5979;SDS011;3016;50.308;8.258;2023-07-13T04:53:10;19.60;;;2.03;;
5979;SDS011;3016;50.308;8.258;2023-07-13T04:56:11;19.83;;;2.53;;
5979;SDS011;3016;50.308;8.258;2023-07-13T04:59:12;18.83;;;3.60;;
5979;SDS011;3016;50.308;8.258;2023-07-13T05:02:13;18.03;;;2.33;;
5979;SDS011;3016;50.308;8.258;2023-07-13T05:05:13;18.00;;;2.23;;
5979;SDS011;3016;50.308;8.258;2023-07-13T05:08:14;18.93;;;2.40;;
5979;SDS011;3016;50.308;8.258;2023-07-13T05:11:15;16.90;;;1.90;;
5979;SDS011;3016;50.308;8.258;2023-07-13T05:14:15;18.77;;;1.93;;
5979;SDS011;3016;50.308;8.258;2023-07-13T05:17:16;17.90;;;2.23;;
5979;SDS011;3016;50.308;8.258;2023-07-13T05:20:17;17.63;;;2.10;;
5979;SDS011;3016;50.308;8.258;2023-07-13T05:23:19;19.00;;;1.80;;
5979;SDS011;3016;50.308;8.258;2023-07-13T05:26:19;17.70;;;2.00;;
5979;SDS011;3016;50.308;8.258;2023-07-13T05:29:21;18.60;;;2.30;;
5979;SDS011;3016;50.308;8.258;2023-07-13T05:32:22;18.37;;;2.00;;
5979;SDS011;3016;50.308;8.258;2023-07-13T05:35:23;18.70;;;1.90;;
5979;SDS011;3016;50.308;8.258;2023-07-13T05:38:23;17.93;;;1.60;;
5979;SDS011;3016;50.308;8.258;2023-07-13T05:41:24;18.43;;;1.87;;
5979;SDS011;3016;50.308;8.258;2023-07-13T05:44:25;17.50;;;1.80;;
5979;SDS011;3016;50.308;8.258;2023-07-13T05:47:25;18.10;;;2.00;;
5979;SDS011;3016;50.308;8.258;2023-07-13T05:50:26;18.03;;;1.80;;
5979;SDS011;3016;50.308;8.258;2023-07-13T05:53:27;17.50;;;2.00;;
5979;SDS011;3016;50.308;8.258;2023-07-13T05:56:27;18.37;;;2.00;;
5979;SDS011;3016;50.308;8.258;2023-07-13T05:59:28;17.00;;;1.50;;
5979;SDS011;3016;50.308;8.258;2023-07-13T06:02:29;17.10;;;1.60;;
5979;SDS011;3016;50.308;8.258;2023-07-13T06:05:30;20.70;;;1.70;;
5979;SDS011;3016;50.308;8.258;2023-07-13T06:08:31;18.30;;;1.33;;
5979;SDS011;3016;50.308;8.258;2023-07-13T06:11:32;17.30;;;1.20;;
5979;SDS011;3016;50.308;8.258;2023-07-13T06:14:35;18.50;;;1.57;;
5979;SDS011;3016;50.308;8.258;2023-07-13T06:17:35;17.20;;;1.50;;
5979;SDS011;3016;50.308;8.258;2023-07-13T06:20:36;17.07;;;1.30;;
5979;SDS011;3016;50.308;8.258;2023-07-13T06:23:37;18.33;;;1.23;;
5979;SDS011;3016;50.308;8.258;2023-07-13T06:26:38;19.03;;;1.23;;
5979;SDS011;3016;50.308;8.258;2023-07-13T06:29:38;17.47;;;1.50;;
5979;SDS011;3016;50.308;8.258;2023-07-13T06:32:40;17.50;;;1.50;;
5979;SDS011;3016;50.308;8.258;2023-07-13T06:35:41;20.10;;;1.67;;
5979;SDS011;3016;50.308;8.258;2023-07-13T06:38:41;18.37;;;1.40;;
5979;SDS011;3016;50.308;8.258;2023-07-13T06:41:42;20.17;;;1.50;;
5979;SDS011;3016;50.308;8.258;2023-07-13T06:44:43;18.63;;;1.33;;
5979;SDS011;3016;50.308;8.258;2023-07-13T06:47:44;17.27;;;1.57;;
5979;SDS011;3016;50.308;8.258;2023-07-13T06:50:45;19.83;;;1.30;;
5979;SDS011;3016;50.308;8.258;2023-07-13T06:53:47;17.30;;;1.50;;
5979;SDS011;3016;50.308;8.258;2023-07-13T06:56:49;19.80;;;1.40;;
5979;SDS011;3016;50.308;8.258;2023-07-13T06:59:50;17.70;;;1.10;;
5979;SDS011;3016;50.308;8.258;2023-07-13T07:02:51;20.90;;;1.10;;
5979;SDS011;3016;50.308;8.258;2023-07-13T07:05:51;16.70;;;0.93;;
5979;SDS011;3016;50.308;8.258;2023-07-13T07:08:53;16.67;;;1.00;;
5979;SDS011;3016;50.308;8.258;2023-07-13T07:11:53;17.20;;;1.10;;
5979;SDS011;3016;50.308;8.258;2023-07-13T07:14:54;17.60;;;1.00;;
5979;SDS011;3016;50.308;8.258;2023-07-13T07:17:55;17.07;;;0.90;;
5979;SDS011;3016;50.308;8.258;2023-07-13T07:20:56;17.17;;;1.27;;
5979;SDS011;3016;50.308;8.258;2023-07-13T07:23:56;17.00;;;0.93;;
5979;SDS011;3016;50.308;8.258;2023-07-13T07:26:57;18.33;;;1.10;;
5979;SDS011;3016;50.308;8.258;2023-07-13T07:29:58;18.43;;;1.10;;
5979;SDS011;3016;50.308;8.258;2023-07-13T07:32:59;17.10;;;0.93;;
5979;SDS011;3016;50.308;8.258;2023-07-13T07:36:01;17.60;;;1.40;;
5979;SDS011;3016;50.308;8.258;2023-07-13T07:39:02;17.20;;;1.00;;
5979;SDS011;3016;50.308;8.258;2023-07-13T07:42:03;17.80;;;1.00;;
5979;SDS011;3016;50.308;8.258;2023-07-13T07:45:04;17.40;;;1.07;;
5979;SDS011;3016;50.308;8.258;2023-07-13T07:48:05;17.00;;;1.33;;
5979;SDS011;3016;50.308;8.258;2023-07-13T07:51:06;18.00;;;1.27;;
5979;SDS011;3016;50.308;8.258;2023-07-13T07:54:07;18.57;;;1.30;;
5979;SDS011;3016;50.308;8.258;2023-07-13T07:57:08;20.47;;;1.27;;
5979;SDS011;3016;50.308;8.258;2023-07-13T08:00:09;17.80;;;1.20;;
5979;SDS011;3016;50.308;8.258;2023-07-13T08:03:11;19.30;;;1.13;;
5979;SDS011;3016;50.308;8.258;2023-07-13T08:06:11;20.07;;;1.00;;
5979;SDS011;3016;50.308;8.258;2023-07-13T08:09:13;17.20;;;0.93;;
5979;SDS011;3016;50.308;8.258;2023-07-13T08:12:13;19.93;;;1.43;;
5979;SDS011;3016;50.308;8.258;2023-07-13T08:15:15;17.03;;;0.93;;
5979;SDS011;3016;50.308;8.258;2023-07-13T08:18:20;17.53;;;1.70;;
5979;SDS011;3016;50.308;8.258;2023-07-13T08:21:21;17.10;;;1.10;;
5979;SDS011;3016;50.308;8.258;2023-07-13T08:24:22;17.40;;;1.20;;
5979;SDS011;3016;50.308;8.258;2023-07-13T08:27:24;18.17;;;1.47;;
5979;SDS011;3016;50.308;8.258;2023-07-13T08:30:26;18.07;;;1.50;;
5979;SDS011;3016;50.308;8.258;2023-07-13T08:33:27;16.93;;;0.97;;
5979;SDS011;3016;50.308;8.258;2023-07-13T08:36:28;16.63;;;0.80;;
5979;SDS011;3016;50.308;8.258;2023-07-13T08:39:30;17.97;;;0.90;;
5979;SDS011;3016;50.308;8.258;2023-07-13T08:42:33;16.90;;;1.00;;
5979;SDS011;3016;50.308;8.258;2023-07-13T08:45:46;17.10;;;0.83;;
5979;SDS011;3016;50.308;8.258;2023-07-13T08:48:53;19.50;;;1.13;;
5979;SDS011;3016;50.308;8.258;2023-07-13T08:52:33;18.03;;;1.07;;
5979;SDS011;3016;50.308;8.258;2023-07-13T08:55:33;18.40;;;1.30;;
5979;SDS011;3016;50.308;8.258;2023-07-13T08:58:39;19.37;;;1.53;;
5979;SDS011;3016;50.308;8.258;2023-07-13T09:05:27;16.90;;;1.07;;
5979;SDS011;3016;50.308;8.258;2023-07-13T09:11:58;17.10;;;1.00;;
5979;SDS011;3016;50.308;8.258;2023-07-13T09:15:28;20.00;;;1.30;;
5979;SDS011;3016;50.308;8.258;2023-07-13T09:18:41;17.17;;;1.10;;
5979;SDS011;3016;50.308;8.258;2023-07-13T09:21:46;17.10;;;1.20;;
5979;SDS011;3016;50.308;8.258;2023-07-13T09:24:52;17.90;;;1.00;;
5979;SDS011;3016;50.308;8.258;2023-07-13T09:28:10;17.67;;;1.20;;
5979;SDS011;3016;50.308;8.258;2023-07-13T09:31:20;17.27;;;1.00;;
5979;SDS011;3016;50.308;8.258;2023-07-13T09:34:28;18.23;;;1.90;;
5979;SDS011;3016;50.308;8.258;2023-07-13T09:37:31;18.30;;;1.30;;
5979;SDS011;3016;50.308;8.258;2023-07-13T09:40:36;16.93;;;1.00;;
5979;SDS011;3016;50.308;8.258;2023-07-13T09:47:42;18.30;;;1.20;;
5979;SDS011;3016;50.308;8.258;2023-07-13T09:50:40;16.80;;;1.00;;
5979;SDS011;3016;50.308;8.258;2023-07-13T09:53:42;20.80;;;1.37;;
5979;SDS011;3016;50.308;8.258;2023-07-13T09:56:43;19.73;;;1.50;;
5979;SDS011;3016;50.308;8.258;2023-07-13T09:59:48;17.50;;;1.20;;
5979;SDS011;3016;50.308;8.258;2023-07-13T10:03:25;16.97;;;1.00;;
5979;SDS011;3016;50.308;8.258;2023-07-13T10:06:20;17.40;;;1.30;;
5979;SDS011;3016;50.308;8.258;2023-07-13T10:09:22;17.20;;;1.10;;
5979;SDS011;3016;50.308;8.258;2023-07-13T10:12:23;18.00;;;1.30;;
5979;SDS011;3016;50.308;8.258;2023-07-13T10:15:25;18.77;;;1.30;;
5979;SDS011;3016;50.308;8.258;2023-07-13T10:18:26;18.47;;;1.20;;
5979;SDS011;3016;50.308;8.258;2023-07-13T10:21:35;16.93;;;1.10;;
5979;SDS011;3016;50.308;8.258;2023-07-13T10:24:39;19.50;;;1.07;;
5979;SDS011;3016;50.308;8.258;2023-07-13T10:27:41;19.50;;;1.50;;
5979;SDS011;3016;50.308;8.258;2023-07-13T10:30:45;18.47;;;1.50;;
5979;SDS011;3016;50.308;8.258;2023-07-13T10:33:47;17.83;;;1.13;;
5979;SDS011;3016;50.308;8.258;2023-07-13T10:36:49;18.83;;;1.30;;
5979;SDS011;3016;50.308;8.258;2023-07-13T10:39:52;19.70;;;1.33;;
5979;SDS011;3016;50.308;8.258;2023-07-13T10:42:56;18.10;;;1.20;;
5979;SDS011;3016;50.308;8.258;2023-07-13T10:45:59;18.90;;;1.67;;
5979;SDS011;3016;50.308;8.258;2023-07-13T10:49:02;19.03;;;1.10;;
5979;SDS011;3016;50.308;8.258;2023-07-13T10:52:06;19.20;;;1.53;;
5979;SDS011;3016;50.308;8.258;2023-07-13T10:55:41;17.67;;;1.40;;
5979;SDS011;3016;50.308;8.258;2023-07-13T11:02:11;17.27;;;1.30;;
5979;SDS011;3016;50.308;8.258;2023-07-13T11:05:26;19.20;;;1.30;;
5979;SDS011;3016;50.308;8.258;2023-07-13T11:08:36;17.93;;;1.40;;
5979;SDS011;3016;50.308;8.258;2023-07-13T11:11:46;17.37;;;1.37;;
5979;SDS011;3016;50.308;8.258;2023-07-13T11:17:54;17.80;;;1.20;;
5979;SDS011;3016;50.308;8.258;2023-07-13T11:24:18;17.77;;;1.00;;
5979;SDS011;3016;50.308;8.258;2023-07-13T11:27:21;20.47;;;1.37;;
5979;SDS011;3016;50.308;8.258;2023-07-13T11:30:35;23.20;;;1.63;;
5979;SDS011;3016;50.308;8.258;2023-07-13T11:36:42;17.57;;;1.03;;
5979;SDS011;3016;50.308;8.258;2023-07-13T11:39:44;18.10;;;1.00;;
5979;SDS011;3016;50.308;8.258;2023-07-13T11:42:48;18.80;;;1.30;;
5979;SDS011;3016;50.308;8.258;2023-07-13T11:45:49;17.67;;;1.20;;
5979;SDS011;3016;50.308;8.258;2023-07-13T11:48:51;17.60;;;1.00;;
5979;SDS011;3016;50.308;8.258;2023-07-13T11:51:53;17.63;;;1.27;;
5979;SDS011;3016;50.308;8.258;2023-07-13T11:54:55;17.97;;;1.50;;
5979;SDS011;3016;50.308;8.258;2023-07-13T11:57:58;20.43;;;1.90;;
5979;SDS011;3016;50.308;8.258;2023-07-13T12:01:01;17.57;;;1.20;;
5979;SDS011;3016;50.308;8.258;2023-07-13T12:04:08;18.20;;;1.30;;
5979;SDS011;3016;50.308;8.258;2023-07-13T12:07:30;18.03;;;1.50;;
5979;SDS011;3016;50.308;8.258;2023-07-13T12:10:33;17.40;;;1.20;;
5979;SDS011;3016;50.308;8.258;2023-07-13T12:13:37;17.60;;;1.30;;
5979;SDS011;3016;50.308;8.258;2023-07-13T12:16:41;19.03;;;1.37;;
5979;SDS011;3016;50.308;8.258;2023-07-13T12:19:43;18.73;;;1.10;;
5979;SDS011;3016;50.308;8.258;2023-07-13T12:22:47;17.57;;;1.43;;
5979;SDS011;3016;50.308;8.258;2023-07-13T12:25:49;17.93;;;1.37;;
5979;SDS011;3016;50.308;8.258;2023-07-13T12:28:54;18.03;;;1.47;;
5979;SDS011;3016;50.308;8.258;2023-07-13T12:31:56;18.20;;;1.40;;
5979;SDS011;3016;50.308;8.258;2023-07-13T12:35:03;19.27;;;1.70;;
5979;SDS011;3016;50.308;8.258;2023-07-13T12:38:18;21.13;;;1.70;;
5979;SDS011;3016;50.308;8.258;2023-07-13T12:41:24;18.40;;;1.43;;
5979;SDS011;3016;50.308;8.258;2023-07-13T12:44:27;17.97;;;1.30;;
5979;SDS011;3016;50.308;8.258;2023-07-13T12:47:43;17.33;;;1.30;;
5979;SDS011;3016;50.308;8.258;2023-07-13T12:50:50;19.30;;;1.60;;
5979;SDS011;3016;50.308;8.258;2023-07-13T12:54:13;20.03;;;1.73;;
5979;SDS011;3016;50.308;8.258;2023-07-13T12:57:19;23.57;;;1.80;;
5979;SDS011;3016;50.308;8.258;2023-07-13T13:00:28;19.23;;;1.57;;
5979;SDS011;3016;50.308;8.258;2023-07-13T13:03:35;18.83;;;2.10;;
5979;SDS011;3016;50.308;8.258;2023-07-13T13:06:44;17.43;;;1.40;;
5979;SDS011;3016;50.308;8.258;2023-07-13T13:09:47;19.67;;;1.63;;
5979;SDS011;3016;50.308;8.258;2023-07-13T13:12:48;22.43;;;1.73;;
5979;SDS011;3016;50.308;8.258;2023-07-13T13:15:50;18.27;;;1.50;;
5979;SDS011;3016;50.308;8.258;2023-07-13T13:18:54;18.50;;;1.30;;
5979;SDS011;3016;50.308;8.258;2023-07-13T13:22:01;17.90;;;1.23;;
5979;SDS011;3016;50.308;8.258;2023-07-13T13:25:02;19.13;;;2.00;;
5979;SDS011;3016;50.308;8.258;2023-07-13T13:28:04;19.00;;;1.80;;
5979;SDS011;3016;50.308;8.258;2023-07-13T13:31:14;22.30;;;2.27;;
5979;SDS011;3016;50.308;8.258;2023-07-13T13:34:15;18.30;;;1.57;;
5979;SDS011;3016;50.308;8.258;2023-07-13T13:37:23;18.67;;;1.47;;
5979;SDS011;3016;50.308;8.258;2023-07-13T13:40:26;21.00;;;1.60;;
5979;SDS011;3016;50.308;8.258;2023-07-13T13:43:27;18.40;;;1.30;;
5979;SDS011;3016;50.308;8.258;2023-07-13T13:46:28;18.30;;;1.53;;
5979;SDS011;3016;50.308;8.258;2023-07-13T13:49:30;18.27;;;1.40;;
5979;SDS011;3016;50.308;8.258;2023-07-13T13:52:31;18.43;;;1.50;;
5979;SDS011;3016;50.308;8.258;2023-07-13T13:55:32;18.80;;;1.60;;
5979;SDS011;3016;50.308;8.258;2023-07-13T13:58:32;18.57;;;1.50;;
5979;SDS011;3016;50.308;8.258;2023-07-13T14:01:33;19.63;;;2.17;;
5979;SDS011;3016;50.308;8.258;2023-07-13T14:04:34;18.10;;;1.20;;
5979;SDS011;3016;50.308;8.258;2023-07-13T14:07:34;18.00;;;1.60;;
5979;SDS011;3016;50.308;8.258;2023-07-13T14:10:35;18.90;;;1.60;;
5979;SDS011;3016;50.308;8.258;2023-07-13T14:13:38;19.07;;;1.60;;
5979;SDS011;3016;50.308;8.258;2023-07-13T14:16:43;19.70;;;1.23;;
5979;SDS011;3016;50.308;8.258;2023-07-13T14:19:46;21.17;;;1.50;;
5979;SDS011;3016;50.308;8.258;2023-07-13T14:22:53;20.50;;;1.40;;
5979;SDS011;3016;50.308;8.258;2023-07-13T14:26:00;18.17;;;1.73;;
5979;SDS011;3016;50.308;8.258;2023-07-13T14:29:01;18.10;;;1.30;;
5979;SDS011;3016;50.308;8.258;2023-07-13T14:32:08;19.50;;;1.27;;
5979;SDS011;3016;50.308;8.258;2023-07-13T14:35:12;17.57;;;1.30;;
5979;SDS011;3016;50.308;8.258;2023-07-13T14:38:18;17.90;;;1.40;;
5979;SDS011;3016;50.308;8.258;2023-07-13T14:41:20;19.00;;;1.90;;
5979;SDS011;3016;50.308;8.258;2023-07-13T14:44:24;19.40;;;1.27;;
5979;SDS011;3016;50.308;8.258;2023-07-13T14:47:31;17.93;;;2.10;;
5979;SDS011;3016;50.308;8.258;2023-07-13T14:50:32;19.00;;;1.57;;
5979;SDS011;3016;50.308;8.258;2023-07-13T14:53:34;18.23;;;2.30;;
5979;SDS011;3016;50.308;8.258;2023-07-13T14:56:40;17.60;;;1.30;;
5979;SDS011;3016;50.308;8.258;2023-07-13T14:59:40;18.73;;;1.50;;
5979;SDS011;3016;50.308;8.258;2023-07-13T15:02:45;18.00;;;1.20;;
5979;SDS011;3016;50.308;8.258;2023-07-13T15:05:54;17.90;;;1.30;;
5979;SDS011;3016;50.308;8.258;2023-07-13T15:08:55;17.00;;;1.07;;
5979;SDS011;3016;50.308;8.258;2023-07-13T15:11:56;17.90;;;1.17;;
5979;SDS011;3016;50.308;8.258;2023-07-13T15:14:58;20.73;;;1.37;;
5979;SDS011;3016;50.308;8.258;2023-07-13T15:17:59;17.67;;;1.40;;
5979;SDS011;3016;50.308;8.258;2023-07-13T15:21:01;18.20;;;1.30;;
5979;SDS011;3016;50.308;8.258;2023-07-13T15:24:04;20.03;;;1.33;;
5979;SDS011;3016;50.308;8.258;2023-07-13T15:27:11;18.70;;;1.70;;
5979;SDS011;3016;50.308;8.258;2023-07-13T15:30:12;18.13;;;1.20;;
5979;SDS011;3016;50.308;8.258;2023-07-13T15:33:27;18.70;;;1.40;;
5979;SDS011;3016;50.308;8.258;2023-07-13T15:36:29;20.57;;;1.60;;
5979;SDS011;3016;50.308;8.258;2023-07-13T15:39:30;17.97;;;1.60;;
5979;SDS011;3016;50.308;8.258;2023-07-13T15:42:31;18.13;;;1.40;;
5979;SDS011;3016;50.308;8.258;2023-07-13T15:45:32;17.53;;;1.20;;
5979;SDS011;3016;50.308;8.258;2023-07-13T15:48:32;17.87;;;1.40;;
5979;SDS011;3016;50.308;8.258;2023-07-13T15:51:39;17.53;;;1.40;;
5979;SDS011;3016;50.308;8.258;2023-07-13T15:54:40;17.17;;;1.27;;
5979;SDS011;3016;50.308;8.258;2023-07-13T15:57:42;18.70;;;1.50;;
5979;SDS011;3016;50.308;8.258;2023-07-13T16:00:48;21.47;;;1.70;;
5979;SDS011;3016;50.308;8.258;2023-07-13T16:03:53;18.30;;;1.20;;
5979;SDS011;3016;50.308;8.258;2023-07-13T16:06:53;17.80;;;1.60;;
5979;SDS011;3016;50.308;8.258;2023-07-13T16:09:54;17.20;;;1.20;;
5979;SDS011;3016;50.308;8.258;2023-07-13T16:12:55;19.40;;;1.97;;
5979;SDS011;3016;50.308;8.258;2023-07-13T16:15:56;19.43;;;1.60;;
5979;SDS011;3016;50.308;8.258;2023-07-13T16:18:59;21.00;;;2.90;;
5979;SDS011;3016;50.308;8.258;2023-07-13T16:22:02;22.47;;;2.97;;
5979;SDS011;3016;50.308;8.258;2023-07-13T16:28:35;19.40;;;2.07;;
5979;SDS011;3016;50.308;8.258;2023-07-13T16:31:35;27.80;;;5.40;;
5979;SDS011;3016;50.308;8.258;2023-07-13T16:34:37;22.80;;;5.00;;
5979;SDS011;3016;50.308;8.258;2023-07-13T16:37:41;22.17;;;4.47;;
5979;SDS011;3016;50.308;8.258;2023-07-13T16:40:42;26.10;;;6.80;;
5979;SDS011;3016;50.308;8.258;2023-07-13T16:43:43;21.87;;;4.20;;
5979;SDS011;3016;50.308;8.258;2023-07-13T16:46:45;18.90;;;1.63;;
5979;SDS011;3016;50.308;8.258;2023-07-13T16:49:55;19.10;;;1.50;;
5979;SDS011;3016;50.308;8.258;2023-07-13T16:52:58;18.10;;;1.43;;
5979;SDS011;3016;50.308;8.258;2023-07-13T16:56:02;19.23;;;1.53;;
5979;SDS011;3016;50.308;8.258;2023-07-13T16:59:17;18.23;;;1.10;;
5979;SDS011;3016;50.308;8.258;2023-07-13T17:02:35;19.03;;;1.43;;
5979;SDS011;3016;50.308;8.258;2023-07-13T17:05:39;17.30;;;1.20;;
5979;SDS011;3016;50.308;8.258;2023-07-13T17:08:45;18.00;;;1.27;;
5979;SDS011;3016;50.308;8.258;2023-07-13T17:11:46;18.30;;;1.33;;
5979;SDS011;3016;50.308;8.258;2023-07-13T17:14:47;18.27;;;1.47;;
5979;SDS011;3016;50.308;8.258;2023-07-13T17:17:48;17.70;;;1.50;;
5979;SDS011;3016;50.308;8.258;2023-07-13T17:20:51;17.63;;;1.20;;
5979;SDS011;3016;50.308;8.258;2023-07-13T17:23:52;17.53;;;1.20;;
5979;SDS011;3016;50.308;8.258;2023-07-13T17:26:53;17.17;;;1.20;;
5979;SDS011;3016;50.308;8.258;2023-07-13T17:29:57;18.03;;;1.50;;
5979;SDS011;3016;50.308;8.258;2023-07-13T17:32:58;18.40;;;1.30;;
5979;SDS011;3016;50.308;8.258;2023-07-13T17:36:03;17.27;;;1.20;;
5979;SDS011;3016;50.308;8.258;2023-07-13T17:39:18;17.63;;;1.30;;
5979;SDS011;3016;50.308;8.258;2023-07-13T17:42:20;18.73;;;1.40;;
5979;SDS011;3016;50.308;8.258;2023-07-13T17:45:24;17.10;;;1.00;;
5979;SDS011;3016;50.308;8.258;2023-07-13T17:48:28;17.77;;;1.30;;
5979;SDS011;3016;50.308;8.258;2023-07-13T17:51:29;17.23;;;1.07;;
5979;SDS011;3016;50.308;8.258;2023-07-13T17:54:30;19.33;;;1.20;;
5979;SDS011;3016;50.308;8.258;2023-07-13T17:57:33;17.73;;;1.30;;
5979;SDS011;3016;50.308;8.258;2023-07-13T18:00:34;17.87;;;1.33;;
5979;SDS011;3016;50.308;8.258;2023-07-13T18:03:40;17.80;;;1.40;;
5979;SDS011;3016;50.308;8.258;2023-07-13T18:06:46;17.27;;;1.23;;
5979;SDS011;3016;50.308;8.258;2023-07-13T18:10:14;19.60;;;1.60;;
5979;SDS011;3016;50.308;8.258;2023-07-13T18:13:16;17.70;;;1.40;;
5979;SDS011;3016;50.308;8.258;2023-07-13T18:16:19;19.60;;;1.43;;
5979;SDS011;3016;50.308;8.258;2023-07-13T18:19:32;18.67;;;1.70;;
5979;SDS011;3016;50.308;8.258;2023-07-13T18:22:38;18.10;;;1.57;;
5979;SDS011;3016;50.308;8.258;2023-07-13T18:25:39;18.77;;;1.20;;
5979;SDS011;3016;50.308;8.258;2023-07-13T18:28:41;19.03;;;1.43;;
5979;SDS011;3016;50.308;8.258;2023-07-13T18:31:43;17.93;;;1.53;;
5979;SDS011;3016;50.308;8.258;2023-07-13T18:34:44;18.53;;;1.60;;
5979;SDS011;3016;50.308;8.258;2023-07-13T18:37:44;17.70;;;1.13;;
5979;SDS011;3016;50.308;8.258;2023-07-13T18:40:46;18.00;;;1.30;;
5979;SDS011;3016;50.308;8.258;2023-07-13T18:43:49;18.70;;;1.57;;
5979;SDS011;3016;50.308;8.258;2023-07-13T18:46:52;19.17;;;1.40;;
5979;SDS011;3016;50.308;8.258;2023-07-13T18:49:52;18.40;;;1.67;;
5979;SDS011;3016;50.308;8.258;2023-07-13T18:52:56;18.10;;;1.60;;
5979;SDS011;3016;50.308;8.258;2023-07-13T18:55:57;19.47;;;1.57;;
5979;SDS011;3016;50.308;8.258;2023-07-13T18:58:57;19.90;;;1.90;;
5979;SDS011;3016;50.308;8.258;2023-07-13T19:01:58;18.83;;;1.73;;
5979;SDS011;3016;50.308;8.258;2023-07-13T19:04:59;17.60;;;1.43;;
5979;SDS011;3016;50.308;8.258;2023-07-13T19:08:00;17.33;;;1.20;;